sensor_id;sensor_type;location;lat;lon;timestamp;P1;durP1;ratioP1;P2;durP2;ratioP2
74291;SDS011;62687;55.738;37.516;2022-08-19T00:01:29;8.18;;;3.20;;
74291;SDS011;62687;55.738;37.516;2022-08-19T00:04:14;8.45;;;3.53;;
74291;SDS011;62687;55.738;37.516;2022-08-19T00:09:42;7.38;;;3.10;;
74291;SDS011;62687;55.738;37.516;2022-08-19T00:12:27;7.63;;;3.13;;
74291;SDS011;62687;55.738;37.516;2022-08-19T00:15:12;6.55;;;3.78;;
74291;SDS011;62687;55.738;37.516;2022-08-19T00:17:57;8.35;;;3.22;;
74291;SDS011;62687;55.738;37.516;2022-08-19T00:20:41;9.50;;;3.70;;
74291;SDS011;62687;55.738;37.516;2022-08-19T00:23:25;6.88;;;3.50;;
74291;SDS011;62687;55.738;37.516;2022-08-19T00:28:54;16.25;;;3.85;;
74291;SDS011;62687;55.738;37.516;2022-08-19T00:31:38;9.75;;;4.00;;
74291;SDS011;62687;55.738;37.516;2022-08-19T00:34:22;9.13;;;4.40;;
74291;SDS011;62687;55.738;37.516;2022-08-19T00:37:06;13.75;;;4.07;;
74291;SDS011;62687;55.738;37.516;2022-08-19T00:39:50;8.80;;;3.53;;
74291;SDS011;62687;55.738;37.516;2022-08-19T00:42:34;7.03;;;3.97;;
74291;SDS011;62687;55.738;37.516;2022-08-19T00:45:21;9.23;;;5.07;;
74291;SDS011;62687;55.738;37.516;2022-08-19T00:48:05;8.38;;;4.05;;
74291;SDS011;62687;55.738;37.516;2022-08-19T00:50:50;11.45;;;4.35;;
74291;SDS011;62687;55.738;37.516;2022-08-19T00:53:36;8.10;;;3.97;;
74291;SDS011;62687;55.738;37.516;2022-08-19T00:56:20;8.95;;;4.57;;
74291;SDS011;62687;55.738;37.516;2022-08-19T01:01:52;10.23;;;4.60;;
74291;SDS011;62687;55.738;37.516;2022-08-19T01:04:36;9.18;;;4.35;;
74291;SDS011;62687;55.738;37.516;2022-08-19T01:07:21;14.45;;;4.32;;
74291;SDS011;62687;55.738;37.516;2022-08-19T01:12:49;16.05;;;4.88;;
74291;SDS011;62687;55.738;37.516;2022-08-19T01:15:35;12.48;;;4.28;;
74291;SDS011;62687;55.738;37.516;2022-08-19T01:18:21;9.63;;;4.20;;
74291;SDS011;62687;55.738;37.516;2022-08-19T01:21:18;14.57;;;4.60;;
74291;SDS011;62687;55.738;37.516;2022-08-19T01:24:05;10.52;;;4.50;;
74291;SDS011;62687;55.738;37.516;2022-08-19T01:26:49;12.60;;;4.97;;
74291;SDS011;62687;55.738;37.516;2022-08-19T01:29:33;15.55;;;4.30;;
74291;SDS011;62687;55.738;37.516;2022-08-19T01:32:18;8.90;;;4.40;;
74291;SDS011;62687;55.738;37.516;2022-08-19T01:35:03;11.52;;;4.47;;
74291;SDS011;62687;55.738;37.516;2022-08-19T01:37:52;10.52;;;4.68;;
74291;SDS011;62687;55.738;37.516;2022-08-19T01:40:37;10.65;;;4.80;;
74291;SDS011;62687;55.738;37.516;2022-08-19T01:43:23;12.50;;;4.72;;
74291;SDS011;62687;55.738;37.516;2022-08-19T01:46:06;9.75;;;4.32;;
74291;SDS011;62687;55.738;37.516;2022-08-19T01:48:50;10.88;;;3.90;;
74291;SDS011;62687;55.738;37.516;2022-08-19T01:51:35;12.30;;;5.05;;
74291;SDS011;62687;55.738;37.516;2022-08-19T01:57:05;10.73;;;4.32;;
74291;SDS011;62687;55.738;37.516;2022-08-19T01:59:50;11.35;;;4.78;;
74291;SDS011;62687;55.738;37.516;2022-08-19T02:02:35;11.82;;;4.50;;
74291;SDS011;62687;55.738;37.516;2022-08-19T02:05:19;9.95;;;4.20;;
74291;SDS011;62687;55.738;37.516;2022-08-19T02:08:05;10.88;;;4.90;;
74291;SDS011;62687;55.738;37.516;2022-08-19T02:10:49;9.73;;;4.63;;
74291;SDS011;62687;55.738;37.516;2022-08-19T02:13:33;11.95;;;4.85;;
74291;SDS011;62687;55.738;37.516;2022-08-19T02:16:18;12.85;;;4.97;;
74291;SDS011;62687;55.738;37.516;2022-08-19T02:19:03;12.48;;;5.07;;
74291;SDS011;62687;55.738;37.516;2022-08-19T02:24:31;8.68;;;4.88;;
74291;SDS011;62687;55.738;37.516;2022-08-19T02:27:15;14.63;;;5.25;;
74291;SDS011;62687;55.738;37.516;2022-08-19T02:29:59;10.45;;;4.80;;
74291;SDS011;62687;55.738;37.516;2022-08-19T02:32:44;14.68;;;5.07;;
74291;SDS011;62687;55.738;37.516;2022-08-19T02:35:28;10.95;;;5.00;;
74291;SDS011;62687;55.738;37.516;2022-08-19T02:38:12;11.73;;;5.40;;
74291;SDS011;62687;55.738;37.516;2022-08-19T02:41:13;13.60;;;5.00;;
74291;SDS011;62687;55.738;37.516;2022-08-19T02:43:58;15.65;;;5.00;;
74291;SDS011;62687;55.738;37.516;2022-08-19T02:46:44;11.00;;;5.25;;
74291;SDS011;62687;55.738;37.516;2022-08-19T02:49:30;11.25;;;5.30;;
74291;SDS011;62687;55.738;37.516;2022-08-19T02:52:15;11.50;;;5.00;;
74291;SDS011;62687;55.738;37.516;2022-08-19T02:54:59;15.68;;;5.30;;
74291;SDS011;62687;55.738;37.516;2022-08-19T02:57:43;11.48;;;5.10;;
74291;SDS011;62687;55.738;37.516;2022-08-19T03:00:27;14.35;;;5.00;;
74291;SDS011;62687;55.738;37.516;2022-08-19T03:03:12;12.98;;;5.00;;
74291;SDS011;62687;55.738;37.516;2022-08-19T03:06:03;13.38;;;5.10;;
74291;SDS011;62687;55.738;37.516;2022-08-19T03:08:47;15.05;;;4.80;;
74291;SDS011;62687;55.738;37.516;2022-08-19T03:11:33;12.23;;;4.95;;
74291;SDS011;62687;55.738;37.516;2022-08-19T03:14:17;12.52;;;5.45;;
74291;SDS011;62687;55.738;37.516;2022-08-19T03:17:01;16.85;;;5.25;;
74291;SDS011;62687;55.738;37.516;2022-08-19T03:19:47;12.60;;;5.38;;
74291;SDS011;62687;55.738;37.516;2022-08-19T03:22:31;13.55;;;5.18;;
74291;SDS011;62687;55.738;37.516;2022-08-19T03:25:14;11.63;;;5.22;;
74291;SDS011;62687;55.738;37.516;2022-08-19T03:27:59;11.23;;;5.57;;
74291;SDS011;62687;55.738;37.516;2022-08-19T03:30:44;11.68;;;4.63;;
74291;SDS011;62687;55.738;37.516;2022-08-19T03:33:40;14.25;;;4.70;;
74291;SDS011;62687;55.738;37.516;2022-08-19T03:36:25;16.27;;;4.88;;
74291;SDS011;62687;55.738;37.516;2022-08-19T03:39:09;9.60;;;4.38;;
74291;SDS011;62687;55.738;37.516;2022-08-19T03:41:53;10.57;;;4.70;;
74291;SDS011;62687;55.738;37.516;2022-08-19T03:44:40;8.57;;;4.25;;
74291;SDS011;62687;55.738;37.516;2022-08-19T03:47:26;15.93;;;4.85;;
74291;SDS011;62687;55.738;37.516;2022-08-19T03:50:10;10.23;;;4.35;;
74291;SDS011;62687;55.738;37.516;2022-08-19T03:52:54;8.95;;;4.30;;
74291;SDS011;62687;55.738;37.516;2022-08-19T03:55:39;14.15;;;4.60;;
74291;SDS011;62687;55.738;37.516;2022-08-19T03:58:23;12.95;;;4.57;;
74291;SDS011;62687;55.738;37.516;2022-08-19T04:01:12;12.65;;;4.28;;
74291;SDS011;62687;55.738;37.516;2022-08-19T04:03:57;13.20;;;4.82;;
74291;SDS011;62687;55.738;37.516;2022-08-19T04:06:41;9.05;;;4.78;;
74291;SDS011;62687;55.738;37.516;2022-08-19T04:09:26;9.73;;;4.90;;
74291;SDS011;62687;55.738;37.516;2022-08-19T04:12:10;14.27;;;5.15;;
74291;SDS011;62687;55.738;37.516;2022-08-19T04:14:54;10.95;;;4.40;;
74291;SDS011;62687;55.738;37.516;2022-08-19T04:17:38;13.13;;;5.30;;
74291;SDS011;62687;55.738;37.516;2022-08-19T04:20:24;14.25;;;4.97;;
74291;SDS011;62687;55.738;37.516;2022-08-19T04:23:07;11.23;;;5.40;;
74291;SDS011;62687;55.738;37.516;2022-08-19T04:25:51;11.27;;;5.30;;
74291;SDS011;62687;55.738;37.516;2022-08-19T04:28:36;26.83;;;5.55;;
74291;SDS011;62687;55.738;37.516;2022-08-19T04:31:22;15.65;;;6.90;;
74291;SDS011;62687;55.738;37.516;2022-08-19T04:34:07;12.93;;;6.22;;
74291;SDS011;62687;55.738;37.516;2022-08-19T04:36:52;14.70;;;6.00;;
74291;SDS011;62687;55.738;37.516;2022-08-19T04:42:39;15.25;;;5.68;;
74291;SDS011;62687;55.738;37.516;2022-08-19T04:45:23;17.48;;;5.72;;
74291;SDS011;62687;55.738;37.516;2022-08-19T04:48:07;12.77;;;5.47;;
74291;SDS011;62687;55.738;37.516;2022-08-19T04:50:52;14.73;;;6.03;;
74291;SDS011;62687;55.738;37.516;2022-08-19T04:53:41;10.60;;;4.82;;
74291;SDS011;62687;55.738;37.516;2022-08-19T04:56:25;10.18;;;5.28;;
74291;SDS011;62687;55.738;37.516;2022-08-19T04:59:10;10.63;;;6.32;;
74291;SDS011;62687;55.738;37.516;2022-08-19T05:01:54;9.82;;;5.57;;
74291;SDS011;62687;55.738;37.516;2022-08-19T05:04:38;11.90;;;4.72;;
74291;SDS011;62687;55.738;37.516;2022-08-19T05:07:22;15.70;;;5.68;;
74291;SDS011;62687;55.738;37.516;2022-08-19T05:10:06;11.43;;;4.90;;
74291;SDS011;62687;55.738;37.516;2022-08-19T05:12:50;14.05;;;5.20;;
74291;SDS011;62687;55.738;37.516;2022-08-19T05:15:34;14.52;;;5.30;;
74291;SDS011;62687;55.738;37.516;2022-08-19T05:18:19;9.95;;;4.85;;
74291;SDS011;62687;55.738;37.516;2022-08-19T05:21:22;10.15;;;4.72;;
74291;SDS011;62687;55.738;37.516;2022-08-19T05:24:24;12.07;;;5.22;;
74291;SDS011;62687;55.738;37.516;2022-08-19T05:27:08;15.40;;;5.40;;
74291;SDS011;62687;55.738;37.516;2022-08-19T05:29:51;14.73;;;5.10;;
74291;SDS011;62687;55.738;37.516;2022-08-19T05:32:36;8.57;;;4.20;;
74291;SDS011;62687;55.738;37.516;2022-08-19T05:35:20;13.23;;;4.78;;
74291;SDS011;62687;55.738;37.516;2022-08-19T05:38:03;11.82;;;4.13;;
74291;SDS011;62687;55.738;37.516;2022-08-19T05:40:47;13.18;;;5.03;;
74291;SDS011;62687;55.738;37.516;2022-08-19T05:43:33;13.88;;;4.88;;
74291;SDS011;62687;55.738;37.516;2022-08-19T05:46:19;10.60;;;5.15;;
74291;SDS011;62687;55.738;37.516;2022-08-19T05:49:04;15.57;;;4.93;;
74291;SDS011;62687;55.738;37.516;2022-08-19T05:51:49;12.50;;;5.18;;
74291;SDS011;62687;55.738;37.516;2022-08-19T05:54:33;11.73;;;4.55;;
74291;SDS011;62687;55.738;37.516;2022-08-19T05:57:18;13.23;;;4.78;;
74291;SDS011;62687;55.738;37.516;2022-08-19T06:00:04;12.25;;;4.70;;
74291;SDS011;62687;55.738;37.516;2022-08-19T06:02:52;12.13;;;4.53;;
74291;SDS011;62687;55.738;37.516;2022-08-19T06:05:38;10.23;;;4.90;;
74291;SDS011;62687;55.738;37.516;2022-08-19T06:08:22;17.77;;;5.10;;
74291;SDS011;62687;55.738;37.516;2022-08-19T06:11:17;14.45;;;4.50;;
74291;SDS011;62687;55.738;37.516;2022-08-19T06:14:03;12.38;;;4.55;;
74291;SDS011;62687;55.738;37.516;2022-08-19T06:16:47;16.13;;;4.55;;
74291;SDS011;62687;55.738;37.516;2022-08-19T06:19:31;13.52;;;4.05;;
74291;SDS011;62687;55.738;37.516;2022-08-19T06:22:15;14.32;;;4.80;;
74291;SDS011;62687;55.738;37.516;2022-08-19T06:24:59;13.80;;;4.63;;
74291;SDS011;62687;55.738;37.516;2022-08-19T06:27:44;11.52;;;4.63;;
74291;SDS011;62687;55.738;37.516;2022-08-19T06:30:28;14.23;;;4.55;;
74291;SDS011;62687;55.738;37.516;2022-08-19T06:33:12;11.68;;;4.75;;
74291;SDS011;62687;55.738;37.516;2022-08-19T06:35:56;13.48;;;4.15;;
74291;SDS011;62687;55.738;37.516;2022-08-19T06:38:40;10.27;;;4.20;;
74291;SDS011;62687;55.738;37.516;2022-08-19T06:41:24;9.65;;;4.40;;
74291;SDS011;62687;55.738;37.516;2022-08-19T06:46:55;10.02;;;4.63;;
74291;SDS011;62687;55.738;37.516;2022-08-19T06:49:39;14.50;;;4.65;;
74291;SDS011;62687;55.738;37.516;2022-08-19T06:52:23;9.50;;;4.47;;
74291;SDS011;62687;55.738;37.516;2022-08-19T06:55:08;14.63;;;5.07;;
74291;SDS011;62687;55.738;37.516;2022-08-19T06:57:52;10.50;;;4.90;;
74291;SDS011;62687;55.738;37.516;2022-08-19T07:00:37;13.82;;;4.63;;
74291;SDS011;62687;55.738;37.516;2022-08-19T07:03:21;8.38;;;4.70;;
74291;SDS011;62687;55.738;37.516;2022-08-19T07:06:06;12.90;;;5.43;;
74291;SDS011;62687;55.738;37.516;2022-08-19T07:08:51;18.10;;;5.05;;
74291;SDS011;62687;55.738;37.516;2022-08-19T07:11:35;10.55;;;4.72;;
74291;SDS011;62687;55.738;37.516;2022-08-19T07:14:21;10.77;;;4.55;;
74291;SDS011;62687;55.738;37.516;2022-08-19T07:17:09;11.60;;;4.20;;
74291;SDS011;62687;55.738;37.516;2022-08-19T07:19:53;12.23;;;4.70;;
74291;SDS011;62687;55.738;37.516;2022-08-19T07:22:39;10.63;;;4.63;;
74291;SDS011;62687;55.738;37.516;2022-08-19T07:25:23;14.55;;;4.63;;
74291;SDS011;62687;55.738;37.516;2022-08-19T07:28:07;12.95;;;4.53;;
74291;SDS011;62687;55.738;37.516;2022-08-19T07:30:53;13.48;;;4.53;;
74291;SDS011;62687;55.738;37.516;2022-08-19T07:33:37;13.98;;;4.43;;
74291;SDS011;62687;55.738;37.516;2022-08-19T07:36:25;18.83;;;4.18;;
74291;SDS011;62687;55.738;37.516;2022-08-19T07:39:20;14.43;;;4.10;;
74291;SDS011;62687;55.738;37.516;2022-08-19T07:42:06;15.48;;;4.65;;
74291;SDS011;62687;55.738;37.516;2022-08-19T07:44:50;6.38;;;4.07;;
74291;SDS011;62687;55.738;37.516;2022-08-19T07:47:34;10.45;;;3.97;;
74291;SDS011;62687;55.738;37.516;2022-08-19T07:50:18;12.73;;;4.85;;
74291;SDS011;62687;55.738;37.516;2022-08-19T07:53:03;9.02;;;3.80;;
74291;SDS011;62687;55.738;37.516;2022-08-19T07:55:46;9.05;;;4.60;;
74291;SDS011;62687;55.738;37.516;2022-08-19T07:58:31;16.67;;;4.30;;
74291;SDS011;62687;55.738;37.516;2022-08-19T08:01:20;18.67;;;3.90;;
74291;SDS011;62687;55.738;37.516;2022-08-19T08:04:05;14.95;;;3.60;;
74291;SDS011;62687;55.738;37.516;2022-08-19T08:07:09;12.38;;;3.80;;
74291;SDS011;62687;55.738;37.516;2022-08-19T08:10:11;19.77;;;3.72;;
74291;SDS011;62687;55.738;37.516;2022-08-19T08:12:55;12.35;;;3.35;;
74291;SDS011;62687;55.738;37.516;2022-08-19T08:15:39;15.77;;;3.40;;
74291;SDS011;62687;55.738;37.516;2022-08-19T08:18:24;12.65;;;3.75;;
74291;SDS011;62687;55.738;37.516;2022-08-19T08:21:09;13.25;;;4.00;;
74291;SDS011;62687;55.738;37.516;2022-08-19T08:23:53;7.57;;;3.38;;
74291;SDS011;62687;55.738;37.516;2022-08-19T08:26:39;6.35;;;3.85;;
74291;SDS011;62687;55.738;37.516;2022-08-19T08:29:23;11.00;;;3.78;;
74291;SDS011;62687;55.738;37.516;2022-08-19T08:32:07;13.25;;;4.00;;
74291;SDS011;62687;55.738;37.516;2022-08-19T08:34:51;10.85;;;3.95;;
74291;SDS011;62687;55.738;37.516;2022-08-19T08:37:35;8.75;;;4.10;;
74291;SDS011;62687;55.738;37.516;2022-08-19T08:43:07;11.43;;;4.50;;
74291;SDS011;62687;55.738;37.516;2022-08-19T08:46:00;9.93;;;4.45;;
74291;SDS011;62687;55.738;37.516;2022-08-19T08:48:52;8.77;;;4.00;;
74291;SDS011;62687;55.738;37.516;2022-08-19T08:51:45;11.75;;;3.83;;
74291;SDS011;62687;55.738;37.516;2022-08-19T08:54:50;9.77;;;3.72;;
74291;SDS011;62687;55.738;37.516;2022-08-19T09:00:39;10.40;;;4.05;;
74291;SDS011;62687;55.738;37.516;2022-08-19T09:03:25;9.80;;;4.00;;
74291;SDS011;62687;55.738;37.516;2022-08-19T09:09:28;16.80;;;4.55;;
74291;SDS011;62687;55.738;37.516;2022-08-19T09:12:27;13.70;;;3.58;;
74291;SDS011;62687;55.738;37.516;2022-08-19T09:15:15;15.88;;;3.75;;
74291;SDS011;62687;55.738;37.516;2022-08-19T09:18:01;9.32;;;3.92;;
74291;SDS011;62687;55.738;37.516;2022-08-19T09:20:45;7.60;;;3.25;;
74291;SDS011;62687;55.738;37.516;2022-08-19T09:23:30;7.75;;;3.47;;
74291;SDS011;62687;55.738;37.516;2022-08-19T09:26:15;10.90;;;3.55;;
74291;SDS011;62687;55.738;37.516;2022-08-19T09:28:59;11.52;;;3.55;;
74291;SDS011;62687;55.738;37.516;2022-08-19T09:31:44;12.10;;;3.72;;
74291;SDS011;62687;55.738;37.516;2022-08-19T09:34:28;10.55;;;3.70;;
74291;SDS011;62687;55.738;37.516;2022-08-19T09:37:12;12.60;;;3.90;;
74291;SDS011;62687;55.738;37.516;2022-08-19T09:39:56;10.80;;;3.58;;
74291;SDS011;62687;55.738;37.516;2022-08-19T09:42:40;8.32;;;3.88;;
74291;SDS011;62687;55.738;37.516;2022-08-19T09:45:26;16.20;;;3.75;;
74291;SDS011;62687;55.738;37.516;2022-08-19T09:48:10;7.32;;;3.55;;
74291;SDS011;62687;55.738;37.516;2022-08-19T09:50:54;14.25;;;4.32;;
74291;SDS011;62687;55.738;37.516;2022-08-19T09:53:38;8.00;;;3.38;;
74291;SDS011;62687;55.738;37.516;2022-08-19T09:56:22;12.27;;;3.65;;
74291;SDS011;62687;55.738;37.516;2022-08-19T09:59:07;6.65;;;3.50;;
74291;SDS011;62687;55.738;37.516;2022-08-19T10:01:51;13.98;;;3.47;;
74291;SDS011;62687;55.738;37.516;2022-08-19T10:04:35;3.97;;;2.47;;
74291;SDS011;62687;55.738;37.516;2022-08-19T10:07:38;12.80;;;2.65;;
74291;SDS011;62687;55.738;37.516;2022-08-19T10:10:21;12.00;;;3.25;;
74291;SDS011;62687;55.738;37.516;2022-08-19T10:13:05;15.50;;;3.25;;
74291;SDS011;62687;55.738;37.516;2022-08-19T10:15:50;13.60;;;3.55;;
74291;SDS011;62687;55.738;37.516;2022-08-19T10:18:35;8.90;;;2.97;;
74291;SDS011;62687;55.738;37.516;2022-08-19T10:21:21;13.88;;;2.65;;
74291;SDS011;62687;55.738;37.516;2022-08-19T10:24:06;11.60;;;2.42;;
74291;SDS011;62687;55.738;37.516;2022-08-19T10:26:50;9.57;;;2.45;;
74291;SDS011;62687;55.738;37.516;2022-08-19T10:29:34;10.77;;;3.00;;
74291;SDS011;62687;55.738;37.516;2022-08-19T10:32:18;8.48;;;2.70;;
74291;SDS011;62687;55.738;37.516;2022-08-19T10:35:03;4.70;;;2.55;;
74291;SDS011;62687;55.738;37.516;2022-08-19T10:37:49;5.75;;;2.90;;
74291;SDS011;62687;55.738;37.516;2022-08-19T10:40:33;8.23;;;2.80;;
74291;SDS011;62687;55.738;37.516;2022-08-19T10:43:17;7.18;;;2.90;;
74291;SDS011;62687;55.738;37.516;2022-08-19T10:46:01;13.82;;;3.20;;
74291;SDS011;62687;55.738;37.516;2022-08-19T10:48:45;11.23;;;3.30;;
74291;SDS011;62687;55.738;37.516;2022-08-19T10:51:30;9.10;;;2.80;;
74291;SDS011;62687;55.738;37.516;2022-08-19T10:54:34;12.30;;;2.75;;
74291;SDS011;62687;55.738;37.516;2022-08-19T10:57:37;7.68;;;2.90;;
74291;SDS011;62687;55.738;37.516;2022-08-19T11:00:21;15.38;;;2.97;;
74291;SDS011;62687;55.738;37.516;2022-08-19T11:03:06;11.38;;;3.55;;
74291;SDS011;62687;55.738;37.516;2022-08-19T11:08:43;10.02;;;2.67;;
74291;SDS011;62687;55.738;37.516;2022-08-19T11:11:28;9.48;;;2.45;;
74291;SDS011;62687;55.738;37.516;2022-08-19T11:14:14;10.85;;;2.60;;
74291;SDS011;62687;55.738;37.516;2022-08-19T11:16:57;10.55;;;2.70;;
74291;SDS011;62687;55.738;37.516;2022-08-19T11:19:41;15.73;;;2.90;;
74291;SDS011;62687;55.738;37.516;2022-08-19T11:25:10;12.95;;;2.83;;
74291;SDS011;62687;55.738;37.516;2022-08-19T11:27:54;13.75;;;2.97;;
74291;SDS011;62687;55.738;37.516;2022-08-19T11:30:39;9.80;;;2.90;;
74291;SDS011;62687;55.738;37.516;2022-08-19T11:33:23;13.45;;;2.60;;
74291;SDS011;62687;55.738;37.516;2022-08-19T11:36:09;11.55;;;2.92;;
74291;SDS011;62687;55.738;37.516;2022-08-19T11:41:38;9.40;;;2.75;;
74291;SDS011;62687;55.738;37.516;2022-08-19T11:44:22;8.73;;;2.80;;
74291;SDS011;62687;55.738;37.516;2022-08-19T11:47:06;12.27;;;2.63;;
74291;SDS011;62687;55.738;37.516;2022-08-19T11:52:34;11.13;;;2.83;;
74291;SDS011;62687;55.738;37.516;2022-08-19T11:58:02;17.33;;;3.20;;
74291;SDS011;62687;55.738;37.516;2022-08-19T12:00:49;11.13;;;2.60;;
74291;SDS011;62687;55.738;37.516;2022-08-19T12:03:33;12.30;;;2.50;;
74291;SDS011;62687;55.738;37.516;2022-08-19T12:06:21;9.95;;;2.22;;
74291;SDS011;62687;55.738;37.516;2022-08-19T12:09:12;7.68;;;2.30;;
74291;SDS011;62687;55.738;37.516;2022-08-19T12:11:56;10.98;;;2.10;;
74291;SDS011;62687;55.738;37.516;2022-08-19T12:17:24;7.90;;;3.05;;
74291;SDS011;62687;55.738;37.516;2022-08-19T12:20:09;7.30;;;2.80;;
74291;SDS011;62687;55.738;37.516;2022-08-19T12:22:53;6.18;;;2.47;;
74291;SDS011;62687;55.738;37.516;2022-08-19T12:25:43;7.70;;;2.30;;
74291;SDS011;62687;55.738;37.516;2022-08-19T12:28:32;8.57;;;2.80;;
74291;SDS011;62687;55.738;37.516;2022-08-19T12:34:00;13.30;;;2.70;;
74291;SDS011;62687;55.738;37.516;2022-08-19T12:36:44;9.05;;;2.67;;
74291;SDS011;62687;55.738;37.516;2022-08-19T12:39:28;12.65;;;2.80;;
74291;SDS011;62687;55.738;37.516;2022-08-19T12:42:15;8.77;;;3.08;;
74291;SDS011;62687;55.738;37.516;2022-08-19T12:44:58;11.20;;;3.00;;
74291;SDS011;62687;55.738;37.516;2022-08-19T12:47:42;11.65;;;2.90;;
74291;SDS011;62687;55.738;37.516;2022-08-19T12:50:27;7.63;;;2.67;;
74291;SDS011;62687;55.738;37.516;2022-08-19T12:53:12;7.47;;;2.90;;
74291;SDS011;62687;55.738;37.516;2022-08-19T12:58:40;13.80;;;3.10;;
74291;SDS011;62687;55.738;37.516;2022-08-19T13:01:25;8.75;;;2.90;;
74291;SDS011;62687;55.738;37.516;2022-08-19T13:04:09;11.60;;;2.95;;
74291;SDS011;62687;55.738;37.516;2022-08-19T13:06:54;9.57;;;2.78;;
74291;SDS011;62687;55.738;37.516;2022-08-19T13:09:38;9.98;;;2.80;;
74291;SDS011;62687;55.738;37.516;2022-08-19T13:12:24;9.05;;;2.80;;
74291;SDS011;62687;55.738;37.516;2022-08-19T13:15:10;13.80;;;2.95;;
74291;SDS011;62687;55.738;37.516;2022-08-19T13:17:54;10.43;;;2.83;;
74291;SDS011;62687;55.738;37.516;2022-08-19T13:20:39;6.38;;;2.92;;
74291;SDS011;62687;55.738;37.516;2022-08-19T13:23:24;12.73;;;2.38;;
74291;SDS011;62687;55.738;37.516;2022-08-19T13:28:52;12.10;;;3.47;;
74291;SDS011;62687;55.738;37.516;2022-08-19T13:31:54;16.33;;;3.97;;
74291;SDS011;62687;55.738;37.516;2022-08-19T13:34:57;12.55;;;4.00;;
74291;SDS011;62687;55.738;37.516;2022-08-19T13:37:41;13.00;;;4.38;;
74291;SDS011;62687;55.738;37.516;2022-08-19T13:40:25;9.68;;;4.28;;
74291;SDS011;62687;55.738;37.516;2022-08-19T13:43:10;11.20;;;3.72;;
74291;SDS011;62687;55.738;37.516;2022-08-19T13:45:54;11.55;;;3.78;;
74291;SDS011;62687;55.738;37.516;2022-08-19T13:48:40;11.95;;;3.28;;
74291;SDS011;62687;55.738;37.516;2022-08-19T13:51:27;14.60;;;3.22;;
74291;SDS011;62687;55.738;37.516;2022-08-19T13:54:11;19.48;;;3.92;;
74291;SDS011;62687;55.738;37.516;2022-08-19T13:56:55;7.72;;;3.00;;
74291;SDS011;62687;55.738;37.516;2022-08-19T13:59:39;11.48;;;3.22;;
74291;SDS011;62687;55.738;37.516;2022-08-19T14:02:23;12.57;;;4.20;;
74291;SDS011;62687;55.738;37.516;2022-08-19T14:05:08;6.07;;;3.05;;
74291;SDS011;62687;55.738;37.516;2022-08-19T14:07:52;8.27;;;3.40;;
74291;SDS011;62687;55.738;37.516;2022-08-19T14:10:36;10.13;;;3.45;;
74291;SDS011;62687;55.738;37.516;2022-08-19T14:13:22;10.00;;;3.78;;
74291;SDS011;62687;55.738;37.516;2022-08-19T14:16:10;13.95;;;4.28;;
74291;SDS011;62687;55.738;37.516;2022-08-19T14:18:54;11.50;;;3.88;;
74291;SDS011;62687;55.738;37.516;2022-08-19T14:21:38;11.00;;;3.63;;
74291;SDS011;62687;55.738;37.516;2022-08-19T14:24:23;11.55;;;3.47;;
74291;SDS011;62687;55.738;37.516;2022-08-19T14:27:07;7.35;;;4.05;;
74291;SDS011;62687;55.738;37.516;2022-08-19T14:29:52;12.85;;;5.18;;
74291;SDS011;62687;55.738;37.516;2022-08-19T14:35:19;15.48;;;5.63;;
74291;SDS011;62687;55.738;37.516;2022-08-19T14:38:06;14.98;;;7.00;;
74291;SDS011;62687;55.738;37.516;2022-08-19T14:40:50;15.25;;;8.52;;
74291;SDS011;62687;55.738;37.516;2022-08-19T14:43:35;18.00;;;8.93;;
74291;SDS011;62687;55.738;37.516;2022-08-19T14:46:20;20.40;;;8.40;;
74291;SDS011;62687;55.738;37.516;2022-08-19T14:49:11;27.77;;;8.73;;
74291;SDS011;62687;55.738;37.516;2022-08-19T14:51:55;16.45;;;9.23;;
74291;SDS011;62687;55.738;37.516;2022-08-19T14:54:40;18.15;;;10.05;;
74291;SDS011;62687;55.738;37.516;2022-08-19T14:57:24;14.50;;;9.90;;
74291;SDS011;62687;55.738;37.516;2022-08-19T15:00:08;13.82;;;9.07;;
74291;SDS011;62687;55.738;37.516;2022-08-19T15:02:56;26.40;;;10.63;;
74291;SDS011;62687;55.738;37.516;2022-08-19T15:05:40;17.40;;;8.88;;
74291;SDS011;62687;55.738;37.516;2022-08-19T15:08:24;18.55;;;9.38;;
74291;SDS011;62687;55.738;37.516;2022-08-19T15:11:10;17.75;;;10.73;;
74291;SDS011;62687;55.738;37.516;2022-08-19T15:13:54;20.55;;;9.82;;
74291;SDS011;62687;55.738;37.516;2022-08-19T15:16:39;19.90;;;10.25;;
74291;SDS011;62687;55.738;37.516;2022-08-19T15:19:25;23.20;;;9.40;;
74291;SDS011;62687;55.738;37.516;2022-08-19T15:22:09;17.17;;;9.25;;
74291;SDS011;62687;55.738;37.516;2022-08-19T15:24:53;12.40;;;7.80;;
74291;SDS011;62687;55.738;37.516;2022-08-19T15:27:38;14.15;;;7.78;;
74291;SDS011;62687;55.738;37.516;2022-08-19T15:30:24;15.18;;;5.72;;
74291;SDS011;62687;55.738;37.516;2022-08-19T15:33:09;20.33;;;6.88;;
74291;SDS011;62687;55.738;37.516;2022-08-19T15:35:53;15.20;;;6.53;;
74291;SDS011;62687;55.738;37.516;2022-08-19T15:38:38;10.63;;;6.25;;
74291;SDS011;62687;55.738;37.516;2022-08-19T15:44:07;13.20;;;6.43;;
74291;SDS011;62687;55.738;37.516;2022-08-19T15:46:52;18.30;;;6.65;;
74291;SDS011;62687;55.738;37.516;2022-08-19T15:49:36;9.48;;;6.72;;
74291;SDS011;62687;55.738;37.516;2022-08-19T15:52:20;14.85;;;6.82;;
74291;SDS011;62687;55.738;37.516;2022-08-19T15:55:04;10.57;;;5.43;;
74291;SDS011;62687;55.738;37.516;2022-08-19T15:57:50;14.65;;;6.60;;
74291;SDS011;62687;55.738;37.516;2022-08-19T16:00:53;14.43;;;5.60;;
74291;SDS011;62687;55.738;37.516;2022-08-19T16:03:56;10.13;;;5.10;;
74291;SDS011;62687;55.738;37.516;2022-08-19T16:06:59;12.25;;;5.18;;
74291;SDS011;62687;55.738;37.516;2022-08-19T16:09:44;14.55;;;5.43;;
74291;SDS011;62687;55.738;37.516;2022-08-19T16:12:27;12.82;;;4.88;;
74291;SDS011;62687;55.738;37.516;2022-08-19T16:15:12;18.85;;;4.65;;
74291;SDS011;62687;55.738;37.516;2022-08-19T16:17:58;11.35;;;4.65;;
74291;SDS011;62687;55.738;37.516;2022-08-19T16:20:44;12.23;;;3.78;;
74291;SDS011;62687;55.738;37.516;2022-08-19T16:23:29;12.25;;;3.58;;
74291;SDS011;62687;55.738;37.516;2022-08-19T16:26:13;8.88;;;3.33;;
74291;SDS011;62687;55.738;37.516;2022-08-19T16:28:58;9.27;;;3.05;;
74291;SDS011;62687;55.738;37.516;2022-08-19T16:34:26;10.60;;;3.30;;
74291;SDS011;62687;55.738;37.516;2022-08-19T16:37:10;14.43;;;3.50;;
74291;SDS011;62687;55.738;37.516;2022-08-19T16:39:55;8.23;;;3.13;;
74291;SDS011;62687;55.738;37.516;2022-08-19T16:42:39;9.02;;;3.13;;
74291;SDS011;62687;55.738;37.516;2022-08-19T16:45:23;10.85;;;3.47;;
74291;SDS011;62687;55.738;37.516;2022-08-19T16:48:07;16.60;;;3.70;;
74291;SDS011;62687;55.738;37.516;2022-08-19T16:50:51;9.60;;;3.53;;
74291;SDS011;62687;55.738;37.516;2022-08-19T16:53:35;7.45;;;2.90;;
74291;SDS011;62687;55.738;37.516;2022-08-19T16:59:04;10.68;;;3.50;;
74291;SDS011;62687;55.738;37.516;2022-08-19T17:01:49;12.00;;;3.50;;
74291;SDS011;62687;55.738;37.516;2022-08-19T17:04:34;16.23;;;4.20;;
74291;SDS011;62687;55.738;37.516;2022-08-19T17:07:19;9.55;;;3.47;;
74291;SDS011;62687;55.738;37.516;2022-08-19T17:10:03;15.10;;;3.38;;
74291;SDS011;62687;55.738;37.516;2022-08-19T17:12:48;9.32;;;3.30;;
74291;SDS011;62687;55.738;37.516;2022-08-19T17:15:32;8.68;;;3.30;;
74291;SDS011;62687;55.738;37.516;2022-08-19T17:18:16;11.38;;;3.00;;
74291;SDS011;62687;55.738;37.516;2022-08-19T17:21:00;10.50;;;3.30;;